Time;durP1;ratioP1;P1;durP2;ratioP2;P2;SDS_P1;SDS_P2;PMS_P1;PMS_P2;Temp;Humidity;BMP_temperature;BMP_pressure;BME280_temperature;BME280_humidity;BME280_pressure;Samples;Min_cycle;Max_cycle;Signal;HPM_P1;HPM_P2
2022/07/26 00:00:56;;;;;;;10.43;8.23;;;23.20;99.90;;;;;;5076911;28;20044;-65
2022/07/26 00:03:24;;;;;;;11.45;7.85;;;23.20;99.90;;;;;;5080850;28;20055;-65
2022/07/26 00:05:51;;;;;;;8.43;7.57;;;23.20;99.90;;;;;;5089231;28;20530;-65
2022/07/26 00:08:19;;;;;;;8.80;7.47;;;23.20;99.90;;;;;;5090448;28;20535;-65
2022/07/26 00:10:48;;;;;;;11.85;8.10;;;23.20;99.90;;;;;;5079523;28;20402;-65
2022/07/26 00:13:18;;;;;;;11.65;8.32;;;23.20;99.90;;;;;;5088238;28;20574;-65
2022/07/26 00:15:48;;;;;;;10.90;8.25;;;23.20;99.90;;;;;;5096602;28;20175;-65
2022/07/26 00:18:16;;;;;;;9.70;7.95;;;23.20;99.90;;;;;;5090958;28;20052;-65
2022/07/26 00:21:21;;;;;;;10.45;8.90;;;23.20;99.90;;;;;;5081962;28;20194;-65
2022/07/26 00:23:49;;;;;;;9.82;7.97;;;23.20;99.90;;;;;;5087758;28;20059;-65
2022/07/26 00:26:54;;;;;;;9.52;7.45;;;23.20;99.90;;;;;;5089427;28;20044;-65
2022/07/26 00:29:21;;;;;;;9.82;7.32;;;23.20;99.90;;;;;;5077500;28;20063;-65
2022/07/26 00:31:48;;;;;;;13.80;7.53;;;23.10;99.90;;;;;;5091331;28;20510;-65
2022/07/26 00:34:16;;;;;;;8.82;7.57;;;23.10;99.90;;;;;;5089999;28;20066;-65
2022/07/26 00:36:43;;;;;;;8.13;7.32;;;23.10;99.90;;;;;;5082613;28;20071;-64
2022/07/26 00:39:10;;;;;;;9.38;7.13;;;23.10;99.90;;;;;;5082905;28;20040;-64
2022/07/26 00:41:38;;;;;;;10.75;7.00;;;23.10;99.90;;;;;;5090434;28;20090;-63
2022/07/26 00:44:05;;;;;;;11.55;7.53;;;23.00;99.90;;;;;;5082390;28;20122;-67
2022/07/26 00:46:32;;;;;;;10.60;7.55;;;23.00;99.90;;;;;;5089090;28;20185;-64
2022/07/26 00:49:00;;;;;;;8.30;7.03;;;23.00;99.90;;;;;;5082225;28;20044;-64
2022/07/26 00:51:28;;;;;;;9.82;7.40;;;23.00;99.90;;;;;;5083851;28;20059;-64
2022/07/26 00:53:55;;;;;;;8.43;7.18;;;23.00;99.90;;;;;;5088583;28;20063;-64
2022/07/26 00:56:22;;;;;;;10.40;7.65;;;22.90;99.90;;;;;;5087399;28;20630;-64
2022/07/26 00:58:50;;;;;;;7.78;6.47;;;22.90;99.90;;;;;;5088973;28;20036;-65
2022/07/26 01:01:17;;;;;;;7.45;6.70;;;22.90;99.90;;;;;;5088532;28;20463;-64
2022/07/26 01:03:45;;;;;;;11.45;6.95;;;22.90;99.90;;;;;;5073615;28;20292;-64
2022/07/26 01:06:12;;;;;;;9.73;7.13;;;22.90;99.90;;;;;;5081174;28;20040;-64
2022/07/26 01:08:39;;;;;;;8.73;7.38;;;22.80;99.90;;;;;;5090680;28;20363;-64
2022/07/26 01:11:07;;;;;;;10.85;7.20;;;22.70;99.90;;;;;;5089035;28;20044;-64
2022/07/26 01:13:34;;;;;;;9.85;6.82;;;22.80;99.90;;;;;;5090227;28;20417;-65
2022/07/26 01:16:02;;;;;;;11.65;7.65;;;22.70;99.90;;;;;;5089891;28;20048;-64
2022/07/26 01:18:30;;;;;;;10.40;6.93;;;22.70;99.90;;;;;;5085907;28;20632;-64
2022/07/26 01:21:00;;;;;;;9.10;6.82;;;22.70;99.90;;;;;;5081434;28;20067;-65
2022/07/26 01:23:42;;;;;;;9.65;7.43;;;22.70;99.90;;;;;;5087105;28;20036;-64
2022/07/26 01:26:10;;;;;;;9.25;7.10;;;22.70;99.90;;;;;;5085884;28;20036;-64
2022/07/26 01:28:39;;;;;;;7.75;6.72;;;22.60;99.90;;;;;;5086327;28;20048;-65
2022/07/26 01:31:07;;;;;;;7.93;6.55;;;22.70;99.90;;;;;;5085475;28;20362;-64
2022/07/26 01:33:35;;;;;;;9.00;6.80;;;22.60;99.90;;;;;;5088323;28;20075;-64
2022/07/26 01:36:02;;;;;;;11.38;7.18;;;22.60;99.90;;;;;;5077049;28;20566;-64
2022/07/26 01:38:30;;;;;;;10.05;7.43;;;22.60;99.90;;;;;;5087809;28;20097;-64
2022/07/26 01:40:57;;;;;;;10.13;6.97;;;22.50;99.90;;;;;;5083114;28;20045;-64
2022/07/26 01:43:24;;;;;;;9.63;7.13;;;22.50;99.90;;;;;;5089052;28;20405;-64
2022/07/26 01:45:53;;;;;;;9.75;6.65;;;22.50;99.90;;;;;;5087668;28;20059;-64
2022/07/26 01:48:21;;;;;;;9.23;6.68;;;22.40;99.90;;;;;;5081583;28;20101;-64
2022/07/26 01:50:48;;;;;;;7.90;6.72;;;22.40;99.90;;;;;;5082921;28;20085;-64
2022/07/26 01:53:16;;;;;;;10.10;6.93;;;22.40;99.90;;;;;;5084789;28;20086;-65
2022/07/26 01:55:43;;;;;;;9.00;6.82;;;22.40;99.90;;;;;;5081946;28;20387;-64
2022/07/26 01:58:11;;;;;;;8.65;7.22;;;22.40;99.90;;;;;;5086557;28;20534;-64
2022/07/26 02:00:38;;;;;;;9.10;6.60;;;22.40;99.90;;;;;;5080535;28;20607;-65
2022/07/26 02:03:05;;;;;;;9.07;7.38;;;22.30;99.90;;;;;;5082713;28;20044;-64
2022/07/26 02:05:33;;;;;;;10.07;7.30;;;22.30;99.90;;;;;;5089259;28;20513;-64
2022/07/26 02:08:00;;;;;;;7.75;6.85;;;22.30;99.90;;;;;;5084109;28;20065;-64
2022/07/26 02:13:13;;;;;;;13.95;7.25;;;22.30;99.90;;;;;;5088761;28;20467;-64
2022/07/26 02:15:41;;;;;;;9.10;7.30;;;22.20;99.90;;;;;;5074911;28;20097;-64
2022/07/26 02:18:08;;;;;;;10.05;6.68;;;22.20;99.90;;;;;;5076480;28;20044;-64
2022/07/26 02:20:36;;;;;;;10.80;6.97;;;22.20;99.90;;;;;;5076320;28;20098;-63
2022/07/26 02:23:03;;;;;;;8.50;7.57;;;22.30;99.90;;;;;;5082281;28;20141;-63
2022/07/26 02:25:31;;;;;;;11.57;7.22;;;22.20;99.90;;;;;;5081137;28;20048;-64
2022/07/26 02:28:00;;;;;;;7.80;7.00;;;22.20;99.90;;;;;;5087773;28;20040;-64
2022/07/26 02:30:28;;;;;;;10.68;7.28;;;22.20;99.90;;;;;;5087980;28;20044;-64
2022/07/26 02:32:55;;;;;;;8.13;6.53;;;22.20;99.90;;;;;;5075764;28;20493;-65
2022/07/26 02:35:22;;;;;;;10.38;7.55;;;22.10;99.90;;;;;;5087090;28;20210;-64
2022/07/26 02:37:50;;;;;;;13.23;7.38;;;22.10;99.90;;;;;;5077621;28;20132;-64
2022/07/26 02:40:17;;;;;;;9.95;7.30;;;22.00;99.90;;;;;;5087336;28;20388;-64
2022/07/26 02:42:45;;;;;;;9.60;7.55;;;22.00;99.90;;;;;;5087938;28;20070;-64
2022/07/26 02:45:13;;;;;;;10.25;6.88;;;22.00;99.90;;;;;;5082086;28;20123;-63
2022/07/26 02:47:52;;;;;;;10.38;7.50;;;22.00;99.90;;;;;;5081308;28;20171;-63
2022/07/26 02:50:22;;;;;;;7.90;7.20;;;22.00;99.90;;;;;;5075433;28;20050;-63
2022/07/26 02:52:50;;;;;;;8.90;7.45;;;22.00;99.90;;;;;;5086676;28;20043;-63
2022/07/26 02:55:20;;;;;;;10.82;7.40;;;22.00;99.90;;;;;;5078308;28;20032;-63
2022/07/26 02:57:48;;;;;;;9.85;7.35;;;22.00;99.90;;;;;;5086020;28;20074;-63
2022/07/26 03:00:17;;;;;;;8.75;7.88;;;22.00;99.90;;;;;;5086425;28;20085;-65
2022/07/26 03:02:45;;;;;;;9.38;7.82;;;22.00;99.90;;;;;;5077436;28;20040;-65
2022/07/26 03:05:12;;;;;;;9.07;7.40;;;22.00;99.90;;;;;;5081023;28;20085;-64
2022/07/26 03:07:39;;;;;;;14.73;7.30;;;21.90;99.90;;;;;;5087474;28;20044;-63
2022/07/26 03:10:10;;;;;;;9.13;7.38;;;21.90;99.90;;;;;;5083123;28;20068;-63
2022/07/26 03:12:37;;;;;;;10.32;6.93;;;21.90;99.90;;;;;;5083761;28;20051;-63
2022/07/26 03:15:05;;;;;;;8.88;7.43;;;21.90;99.90;;;;;;5075817;28;20130;-64
2022/07/26 03:17:32;;;;;;;8.23;7.40;;;21.90;99.90;;;;;;5087105;28;20064;-65
2022/07/26 03:20:01;;;;;;;9.90;7.60;;;21.90;99.90;;;;;;5084708;28;20517;-64
2022/07/26 03:22:28;;;;;;;8.80;7.28;;;21.90;99.90;;;;;;5086286;28;20442;-64
2022/07/26 03:24:56;;;;;;;9.40;7.25;;;21.90;99.90;;;;;;5085955;28;20153;-63
2022/07/26 03:27:24;;;;;;;8.18;7.30;;;21.80;99.90;;;;;;5085779;28;20044;-64
2022/07/26 03:29:51;;;;;;;9.70;7.78;;;21.80;99.90;;;;;;5077072;28;20044;-64
2022/07/26 03:32:18;;;;;;;9.02;7.38;;;21.90;99.90;;;;;;5080150;28;20102;-64
2022/07/26 03:34:46;;;;;;;7.85;7.15;;;21.70;99.90;;;;;;5083881;28;20043;-64
2022/07/26 03:37:13;;;;;;;16.10;7.90;;;21.80;99.90;;;;;;5077705;28;20083;-64
2022/07/26 03:39:40;;;;;;;12.05;7.38;;;21.80;99.90;;;;;;5084521;28;20052;-64
2022/07/26 03:42:08;;;;;;;9.43;7.07;;;21.80;99.90;;;;;;5085040;28;20877;-64
2022/07/26 03:44:35;;;;;;;9.68;7.38;;;21.80;99.90;;;;;;5083063;28;20048;-65
2022/07/26 03:47:03;;;;;;;7.93;7.10;;;21.70;99.90;;;;;;5087514;28;20455;-64
2022/07/26 03:49:30;;;;;;;9.25;7.03;;;21.70;99.90;;;;;;5080498;28;20036;-65
2022/07/26 03:51:58;;;;;;;9.75;7.40;;;21.70;99.90;;;;;;5085783;28;20063;-65
2022/07/26 03:54:25;;;;;;;8.50;7.40;;;21.60;99.90;;;;;;5079995;28;20402;-65
2022/07/26 03:56:52;;;;;;;10.48;7.15;;;21.60;99.90;;;;;;5084898;28;20047;-65
2022/07/26 03:59:20;;;;;;;8.77;7.13;;;21.60;99.90;;;;;;5078001;28;20056;-65
2022/07/26 04:01:47;;;;;;;7.97;6.45;;;21.50;99.90;;;;;;5082886;28;20040;-64
2022/07/26 04:04:18;;;;;;;8.55;7.22;;;21.50;99.90;;;;;;5067338;28;20045;-64
2022/07/26 04:06:51;;;;;;;8.15;7.22;;;21.50;99.90;;;;;;5082543;28;20048;-67
2022/07/26 04:09:18;;;;;;;8.07;7.18;;;21.50;99.90;;;;;;5084183;28;20418;-66
2022/07/26 04:11:47;;;;;;;10.25;6.82;;;21.60;99.90;;;;;;5080148;28;20028;-64
2022/07/26 04:14:15;;;;;;;8.25;7.10;;;21.50;99.90;;;;;;5086655;28;20044;-64
2022/07/26 04:16:42;;;;;;;9.85;6.85;;;21.50;99.90;;;;;;5086924;28;20063;-65
2022/07/26 04:19:10;;;;;;;9.02;7.00;;;21.50;99.90;;;;;;5083998;28;20048;-65
2022/07/26 04:21:37;;;;;;;10.15;6.85;;;21.60;99.90;;;;;;5078204;28;20052;-66
2022/07/26 04:24:05;;;;;;;9.80;6.95;;;21.60;99.90;;;;;;5084190;28;20064;-65
2022/07/26 04:26:33;;;;;;;13.50;7.15;;;21.60;99.90;;;;;;5082706;28;20032;-65
2022/07/26 04:29:01;;;;;;;11.35;6.53;;;21.60;99.90;;;;;;5085217;28;20140;-64
2022/07/26 04:31:28;;;;;;;9.05;7.15;;;21.60;99.90;;;;;;5084751;28;20410;-64
2022/07/26 04:34:02;;;;;;;10.30;7.30;;;21.50;99.90;;;;;;5079800;28;20074;-64
2022/07/26 04:36:30;;;;;;;10.38;7.00;;;21.60;99.90;;;;;;5083622;28;20052;-64
2022/07/26 04:38:57;;;;;;;7.85;6.60;;;21.60;99.90;;;;;;5076678;28;20040;-64
2022/07/26 04:41:24;;;;;;;10.32;6.38;;;21.70;99.90;;;;;;5085085;28;20040;-65
2022/07/26 04:43:51;;;;;;;10.77;6.75;;;21.70;99.90;;;;;;5080393;28;20529;-64
2022/07/26 04:46:19;;;;;;;8.57;6.60;;;21.70;99.90;;;;;;5077186;28;20049;-65
2022/07/26 04:48:46;;;;;;;8.32;6.72;;;21.70;99.90;;;;;;5079752;28;20122;-64
2022/07/26 04:51:14;;;;;;;9.35;7.22;;;21.70;99.90;;;;;;5084676;28;20112;-64
2022/07/26 04:53:41;;;;;;;8.80;6.85;;;21.70;99.90;;;;;;5081956;28;20056;-65
2022/07/26 04:56:08;;;;;;;7.35;6.65;;;21.70;99.90;;;;;;5090191;28;20468;-67
2022/07/26 04:58:35;;;;;;;11.88;6.97;;;21.60;99.90;;;;;;5089395;28;20071;-64
2022/07/26 05:01:03;;;;;;;10.30;7.20;;;21.70;99.90;;;;;;5088655;28;20046;-65
2022/07/26 05:03:38;;;;;;;9.25;7.20;;;21.60;99.90;;;;;;5080670;28;20135;-65
2022/07/26 05:06:05;;;;;;;11.85;6.57;;;21.60;99.90;;;;;;5082986;28;20127;-65
2022/07/26 05:08:33;;;;;;;9.00;6.55;;;21.70;99.90;;;;;;5087220;28;20044;-65
2022/07/26 05:11:00;;;;;;;8.95;7.38;;;21.70;99.90;;;;;;5088947;28;20051;-65
2022/07/26 05:13:27;;;;;;;11.15;7.85;;;21.70;99.90;;;;;;5090136;28;20167;-64
2022/07/26 05:15:56;;;;;;;9.25;7.55;;;21.80;99.90;;;;;;5081970;28;20132;-64
2022/07/26 05:18:25;;;;;;;9.77;7.32;;;21.70;99.90;;;;;;5084143;28;20402;-64
2022/07/26 05:20:52;;;;;;;9.85;6.78;;;21.80;99.90;;;;;;5083496;28;20127;-64
2022/07/26 05:23:19;;;;;;;10.13;6.95;;;21.80;99.90;;;;;;5081465;28;20048;-64
2022/07/26 05:25:47;;;;;;;9.85;7.25;;;21.80;99.90;;;;;;5082537;28;20045;-64
2022/07/26 05:28:14;;;;;;;13.13;7.82;;;21.90;99.90;;;;;;5080689;28;20036;-64
2022/07/26 05:30:41;;;;;;;9.25;6.82;;;22.00;99.90;;;;;;5085612;28;20123;-64
2022/07/26 05:33:09;;;;;;;10.18;7.50;;;22.00;99.90;;;;;;5088162;28;20047;-64
2022/07/26 05:35:42;;;;;;;11.57;7.75;;;21.90;99.90;;;;;;5080375;28;20139;-65
2022/07/26 05:38:10;;;;;;;12.68;7.25;;;21.90;99.90;;;;;;5085918;28;20044;-65
2022/07/26 05:40:37;;;;;;;8.77;7.30;;;21.90;99.90;;;;;;5081308;28;20052;-65
2022/07/26 05:43:04;;;;;;;10.40;8.52;;;21.90;99.90;;;;;;5086499;28;20040;-64
2022/07/26 05:45:32;;;;;;;10.23;8.00;;;21.80;99.90;;;;;;5089968;28;20077;-63
2022/07/26 05:47:59;;;;;;;8.52;7.00;;;22.00;99.90;;;;;;5087714;28;20050;-64
2022/07/26 05:50:27;;;;;;;9.38;6.93;;;21.90;99.90;;;;;;5079182;28;20119;-64
2022/07/26 05:52:54;;;;;;;10.50;7.40;;;22.00;99.90;;;;;;5082265;28;20156;-65
2022/07/26 05:55:21;;;;;;;12.48;7.15;;;21.90;99.90;;;;;;5079982;28;20059;-70
2022/07/26 05:57:49;;;;;;;12.05;7.50;;;21.90;99.90;;;;;;5089148;28;20050;-65
2022/07/26 06:00:16;;;;;;;9.23;7.10;;;21.80;99.90;;;;;;5087544;28;20049;-65
2022/07/26 06:02:44;;;;;;;11.25;7.40;;;21.80;99.90;;;;;;5082595;28;20097;-66
2022/07/26 06:05:11;;;;;;;11.93;7.30;;;21.80;99.90;;;;;;5070182;28;20048;-64
2022/07/26 06:07:39;;;;;;;12.82;7.28;;;21.90;99.90;;;;;;5087553;28;20044;-65
2022/07/26 06:10:06;;;;;;;9.98;7.40;;;21.90;99.90;;;;;;5084637;28;20048;-65
2022/07/26 06:12:34;;;;;;;13.73;6.95;;;22.00;99.90;;;;;;5079159;28;20123;-64
2022/07/26 06:15:01;;;;;;;10.90;6.72;;;21.80;99.90;;;;;;5078025;28;20496;-64
2022/07/26 06:17:29;;;;;;;11.13;7.90;;;21.80;99.90;;;;;;5081375;28;20043;-64
2022/07/26 06:19:58;;;;;;;11.50;7.20;;;21.80;99.90;;;;;;5087339;28;20093;-64
2022/07/26 06:22:25;;;;;;;10.10;7.38;;;21.90;99.90;;;;;;5087067;28;20050;-65
2022/07/26 06:24:53;;;;;;;12.52;7.53;;;21.90;99.90;;;;;;5081243;28;20085;-65
2022/07/26 06:27:20;;;;;;;7.70;6.90;;;21.90;99.90;;;;;;5088511;28;20418;-65
2022/07/26 06:29:47;;;;;;;12.48;6.90;;;21.90;99.90;;;;;;5089555;28;20036;-65
2022/07/26 06:32:15;;;;;;;10.18;8.32;;;22.00;99.90;;;;;;5081865;28;20120;-64
2022/07/26 06:34:42;;;;;;;12.55;7.70;;;21.80;99.90;;;;;;5086929;28;20036;-65
2022/07/26 06:37:09;;;;;;;11.90;7.88;;;21.80;99.90;;;;;;5088835;28;20040;-64
2022/07/26 06:39:37;;;;;;;8.23;7.18;;;21.80;99.90;;;;;;5076062;28;20444;-64
2022/07/26 06:42:04;;;;;;;10.43;7.45;;;21.80;99.90;;;;;;5079131;28;20101;-64
2022/07/26 06:44:31;;;;;;;11.55;7.88;;;22.00;99.90;;;;;;5088335;28;20089;-65
2022/07/26 06:46:59;;;;;;;7.90;7.10;;;22.10;99.90;;;;;;5086578;28;20054;-65
2022/07/26 06:49:26;;;;;;;8.63;6.78;;;22.30;99.90;;;;;;5084535;28;20046;-66
2022/07/26 06:51:56;;;;;;;12.25;7.25;;;22.40;99.90;;;;;;5073580;28;20036;-64
2022/07/26 06:54:23;;;;;;;10.40;7.43;;;22.30;99.90;;;;;;5088359;28;20040;-64
2022/07/26 06:56:51;;;;;;;11.38;7.60;;;22.20;99.90;;;;;;5085961;28;20073;-65
2022/07/26 06:59:18;;;;;;;9.35;7.72;;;22.20;99.90;;;;;;5081462;28;20048;-65
2022/07/26 07:01:46;;;;;;;8.32;7.53;;;22.10;99.90;;;;;;5078219;28;20044;-65
2022/07/26 07:04:30;;;;;;;7.65;6.82;;;22.20;99.90;;;;;;5071535;28;20482;-67
2022/07/26 07:07:01;;;;;;;11.40;7.43;;;22.20;99.90;;;;;;5086958;28;20036;-64
2022/07/26 07:09:32;;;;;;;8.70;6.85;;;22.30;99.90;;;;;;5088695;28;20044;-65
2022/07/26 07:12:01;;;;;;;9.75;6.57;;;22.30;99.90;;;;;;5085371;28;20563;-66
2022/07/26 07:14:37;;;;;;;9.43;6.70;;;22.40;99.90;;;;;;5078318;28;20052;-64
2022/07/26 07:17:06;;;;;;;9.48;6.70;;;22.50;99.90;;;;;;5084788;28;20539;-64
2022/07/26 07:19:41;;;;;;;9.07;7.15;;;22.50;99.90;;;;;;5077270;28;20052;-64
2022/07/26 07:22:10;;;;;;;11.95;7.22;;;22.50;99.90;;;;;;5077391;28;20080;-64
2022/07/26 07:24:40;;;;;;;13.73;6.90;;;22.50;99.90;;;;;;5086292;28;20047;-64
2022/07/26 07:27:08;;;;;;;12.85;7.30;;;22.60;99.90;;;;;;5077131;28;20051;-64
2022/07/26 07:29:37;;;;;;;7.75;6.78;;;22.60;99.90;;;;;;5086215;28;20051;-64
2022/07/26 07:32:07;;;;;;;7.85;7.05;;;22.70;99.90;;;;;;5076626;28;20414;-64
2022/07/26 07:34:45;;;;;;;8.63;7.28;;;22.80;99.90;;;;;;5081969;28;20115;-64
2022/07/26 07:37:14;;;;;;;10.05;7.35;;;23.10;99.90;;;;;;5079052;28;20052;-64
2022/07/26 07:39:42;;;;;;;9.55;6.90;;;23.30;99.90;;;;;;5072817;28;20351;-64
2022/07/26 07:42:09;;;;;;;8.02;7.20;;;23.50;99.90;;;;;;5084435;28;20043;-65
2022/07/26 07:44:36;;;;;;;7.43;6.72;;;23.70;99.90;;;;;;5079146;28;20101;-66
2022/07/26 07:47:05;;;;;;;11.32;6.88;;;23.90;99.90;;;;;;5078191;28;20498;-65
2022/07/26 07:49:32;;;;;;;7.80;7.00;;;24.00;99.90;;;;;;5081389;28;20063;-63
2022/07/26 07:52:00;;;;;;;7.40;6.70;;;24.20;99.90;;;;;;5078607;28;20045;-64
2022/07/26 07:54:28;;;;;;;7.60;6.90;;;24.50;99.90;;;;;;5080709;28;20522;-64
2022/07/26 07:56:56;;;;;;;8.10;6.50;;;24.70;99.90;;;;;;5082206;28;20078;-64
2022/07/26 07:59:23;;;;;;;8.13;6.53;;;24.80;99.90;;;;;;5078572;28;20599;-65
2022/07/26 08:01:50;;;;;;;6.90;6.30;;;24.70;99.90;;;;;;5082216;28;20058;-66
2022/07/26 08:04:18;;;;;;;7.35;6.00;;;24.60;99.90;;;;;;5076820;28;20445;-65
2022/07/26 08:06:45;;;;;;;6.93;6.22;;;24.50;99.90;;;;;;5082399;28;20059;-64
2022/07/26 08:09:18;;;;;;;9.60;6.72;;;24.30;99.90;;;;;;5084704;28;20036;-65
2022/07/26 08:11:45;;;;;;;12.02;6.70;;;24.30;99.90;;;;;;5079815;28;20521;-65
2022/07/26 08:14:17;;;;;;;;;;;24.40;99.90;;;;;;5085097;28;20040;-65
2022/07/26 08:16:45;;;;;;;10.25;6.15;;;24.40;99.90;;;;;;5086158;28;19924;-64
2022/07/26 08:19:13;;;;;;;6.15;5.65;;;24.80;99.90;;;;;;5085819;28;20044;-64
2022/07/26 08:21:44;;;;;;;7.78;6.10;;;24.90;99.90;;;;;;5085643;28;20048;-65
2022/07/26 08:24:12;;;;;;;9.90;6.20;;;24.90;99.90;;;;;;5086991;28;20097;-65
2022/07/26 08:26:40;;;;;;;6.85;6.15;;;25.00;99.90;;;;;;5089966;28;20064;-66
2022/07/26 08:29:07;;;;;;;8.95;6.20;;;25.30;99.90;;;;;;5087974;28;20106;-65
2022/07/26 08:31:35;;;;;;;8.70;6.82;;;25.40;99.90;;;;;;5092020;28;20048;-66
2022/07/26 08:34:02;;;;;;;6.90;6.30;;;25.50;99.90;;;;;;5088134;28;20044;-65
2022/07/26 08:36:29;;;;;;;6.82;6.07;;;25.40;99.90;;;;;;5091009;28;20396;-65
2022/07/26 08:39:00;;;;;;;6.88;6.20;;;25.50;99.90;;;;;;5091338;28;20547;-67
2022/07/26 08:41:27;;;;;;;8.02;6.30;;;25.70;99.90;;;;;;5090780;28;20542;-65
2022/07/26 08:44:04;;;;;;;7.55;5.85;;;25.60;99.90;;;;;;5081845;28;20554;-65
2022/07/26 08:46:35;;;;;;;8.70;6.50;;;25.70;99.90;;;;;;5088363;28;20036;-65
2022/07/26 08:49:05;;;;;;;7.97;7.00;;;25.60;99.90;;;;;;5091520;28;20448;-65
2022/07/26 08:51:36;;;;;;;7.22;6.50;;;25.40;99.90;;;;;;5089010;28;20044;-66
2022/07/26 08:54:03;;;;;;;8.00;6.70;;;25.20;99.90;;;;;;5080433;28;20069;-65
2022/07/26 08:56:34;;;;;;;8.88;6.80;;;25.40;99.90;;;;;;5079396;28;20051;-65
2022/07/26 08:59:03;;;;;;;6.82;6.22;;;25.20;99.90;;;;;;5081458;28;20451;-66
2022/07/26 09:01:31;;;;;;;6.95;6.35;;;25.20;99.90;;;;;;5090207;28;20036;-65
2022/07/26 09:04:17;;;;;;;7.38;6.68;;;25.30;99.90;;;;;;5081594;28;20079;-65
2022/07/26 09:07:10;;;;;;;7.20;6.20;;;25.20;99.90;;;;;;5082898;28;20040;-65
2022/07/26 09:10:03;;;;;;;7.47;6.75;;;25.20;99.90;;;;;;5089055;28;20095;-66
2022/07/26 09:12:31;;;;;;;9.40;6.65;;;25.10;99.90;;;;;;5077977;28;20068;-66
2022/07/26 09:15:00;;;;;;;10.85;6.13;;;25.70;99.90;;;;;;5087851;28;20048;-65
2022/07/26 09:17:41;;;;;;;7.93;6.43;;;26.10;99.90;;;;;;5085101;28;20044;-65
2022/07/26 09:20:13;;;;;;;7.88;6.80;;;26.40;99.90;;;;;;5090247;28;20073;-67
2022/07/26 09:22:58;;;;;;;9.63;6.72;;;26.30;99.90;;;;;;5084512;28;20067;-65
2022/07/26 09:25:27;;;;;;;6.80;6.10;;;26.00;99.90;;;;;;5087186;28;20430;-65
2022/07/26 09:27:55;;;;;;;6.53;5.60;;;25.90;99.90;;;;;;5089398;28;20492;-65
2022/07/26 09:30:22;;;;;;;8.18;6.38;;;25.90;99.90;;;;;;5087053;28;20044;-65
2022/07/26 09:33:15;;;;;;;6.57;6.00;;;25.90;99.90;;;;;;5088015;28;20128;-65
2022/07/26 09:36:03;;;;;;;10.60;5.68;;;25.80;99.90;;;;;;5081994;28;20045;-65
2022/07/26 09:38:50;;;;;;;6.78;5.50;;;25.70;99.90;;;;;;5080651;28;20079;-64
2022/07/26 09:41:22;;;;;;;11.40;6.80;;;25.70;99.90;;;;;;5081801;28;20439;-65
2022/07/26 09:43:50;;;;;;;10.80;6.50;;;25.80;99.90;;;;;;5087702;28;20551;-65
2022/07/26 09:46:22;;;;;;;6.70;6.05;;;26.00;99.90;;;;;;5084659;28;20095;-65
2022/07/26 09:48:49;;;;;;;6.57;5.85;;;25.90;99.90;;;;;;5088565;28;20048;-66
2022/07/26 09:51:39;;;;;;;6.63;5.65;;;26.10;99.90;;;;;;5083868;28;20119;-65
2022/07/26 09:54:09;;;;;;;7.70;6.15;;;26.40;99.90;;;;;;5088564;28;20102;-65
2022/07/26 09:56:44;;;;;;;6.47;5.88;;;26.60;99.90;;;;;;5087495;28;20047;-65
2022/07/26 09:59:14;;;;;;;6.97;5.85;;;26.90;99.90;;;;;;5087330;28;20040;-65
2022/07/26 10:01:42;;;;;;;6.43;5.80;;;26.80;99.90;;;;;;5082453;28;20049;-66
2022/07/26 10:04:11;;;;;;;11.02;6.22;;;26.80;99.90;;;;;;5079202;28;20040;-64
2022/07/26 10:06:40;;;;;;;6.90;6.20;;;26.50;99.90;;;;;;5083608;28;20071;-65
2022/07/26 10:09:08;;;;;;;6.70;6.00;;;26.00;99.90;;;;;;5089447;28;20497;-65
2022/07/26 10:12:15;;;;;;;9.18;6.07;;;26.00;99.90;;;;;;5084720;28;20555;-65
2022/07/26 10:14:48;;;;;;;6.75;6.15;;;25.70;99.90;;;;;;4999632;28;20088;-65
2022/07/26 10:17:27;;;;;;;6.97;6.25;;;25.70;99.90;;;;;;5006650;28;20061;-67
2022/07/26 10:20:04;;;;;;;11.05;6.60;;;26.00;99.90;;;;;;5005676;28;20049;-65
2022/07/26 10:22:49;;;;;;;7.63;6.07;;;26.30;99.90;;;;;;5007163;28;20223;-66
2022/07/26 10:25:16;;;;;;;6.95;6.20;;;26.60;99.90;;;;;;5003044;28;20064;-65
2022/07/26 10:27:52;;;;;;;8.95;6.20;;;26.80;99.90;;;;;;5006100;28;20220;-66
2022/07/26 10:30:24;;;;;;;7.90;6.10;;;26.80;99.90;;;;;;5004331;28;20041;-66
2022/07/26 10:33:01;;;;;;;6.80;6.10;;;27.00;99.90;;;;;;5005144;28;20046;-65
2022/07/26 10:35:40;;;;;;;8.30;5.93;;;26.80;99.90;;;;;;4989994;28;20058;-66
2022/07/26 10:38:28;;;;;;;8.18;6.07;;;27.30;99.90;;;;;;5006803;28;20523;-65
2022/07/26 10:41:00;;;;;;;7.22;6.00;;;27.60;99.90;;;;;;5006925;28;20058;-64
2022/07/26 10:43:29;;;;;;;8.18;6.28;;;27.10;99.90;;;;;;5004739;28;20057;-66
2022/07/26 10:46:17;;;;;;;8.05;5.85;;;26.70;99.90;;;;;;5005032;28;20057;-65
2022/07/26 10:49:02;;;;;;;6.45;5.85;;;26.60;99.90;;;;;;5047963;28;20494;-65
2022/07/26 10:51:35;;;;;;;8.50;6.25;;;27.00;99.90;;;;;;5086433;28;20129;-66
2022/07/26 10:54:05;;;;;;;8.43;5.80;;;27.60;99.30;;;;;;5083533;28;20532;-65
2022/07/26 10:56:33;;;;;;;9.68;6.00;;;27.90;99.10;;;;;;5083885;28;20119;-65
2022/07/26 10:59:02;;;;;;;8.93;6.38;;;28.30;98.30;;;;;;5081305;28;20183;-65
2022/07/26 11:01:33;;;;;;;6.93;5.85;;;28.50;97.90;;;;;;5078243;28;20094;-66
2022/07/26 11:04:01;;;;;;;9.98;5.80;;;28.40;98.00;;;;;;5079674;28;20036;-65
2022/07/26 11:06:29;;;;;;;6.68;6.07;;;27.90;97.30;;;;;;5081454;28;20127;-66
2022/07/26 11:08:56;;;;;;;6.50;5.90;;;27.50;96.90;;;;;;5088297;28;20066;-66
2022/07/26 11:11:28;;;;;;;6.95;5.82;;;27.30;95.60;;;;;;5086508;28;20514;-66
2022/07/26 11:14:15;;;;;;;6.07;5.50;;;27.40;95.80;;;;;;5081532;28;20637;-66
2022/07/26 11:16:49;;;;;;;9.23;5.25;;;27.60;95.80;;;;;;5085436;28;20558;-68
2022/07/26 11:19:18;;;;;;;7.32;5.57;;;27.60;95.60;;;;;;5085882;28;20040;-66
2022/07/26 11:21:57;;;;;;;7.07;5.20;;;27.40;95.20;;;;;;5085974;28;20097;-65
2022/07/26 11:24:25;;;;;;;7.68;5.50;;;27.60;94.20;;;;;;5085413;28;20072;-66
2022/07/26 11:26:54;;;;;;;6.93;5.90;;;27.80;93.40;;;;;;5088146;28;20404;-65
2022/07/26 11:29:33;;;;;;;7.15;5.50;;;27.90;93.40;;;;;;5075038;28;20072;-66
2022/07/26 11:32:16;;;;;;;9.98;5.75;;;27.90;93.70;;;;;;5075343;28;20111;-66
2022/07/26 11:34:45;;;;;;;7.38;5.28;;;28.10;92.80;;;;;;5086952;28;20570;-66
2022/07/26 11:37:13;;;;;;;8.57;5.22;;;28.20;92.10;;;;;;5081237;28;20072;-66
2022/07/26 11:39:41;;;;;;;5.57;5.10;;;28.90;91.30;;;;;;5084940;28;20500;-65
2022/07/26 11:42:11;;;;;;;7.10;5.50;;;29.00;90.60;;;;;;5080192;28;20554;-65
2022/07/26 11:44:43;;;;;;;6.00;5.40;;;28.50;91.00;;;;;;5071753;28;20526;-66
2022/07/26 11:47:12;;;;;;;6.22;5.20;;;27.90;91.10;;;;;;5087089;28;20124;-68
2022/07/26 11:49:40;;;;;;;12.75;5.82;;;27.70;91.40;;;;;;5085790;28;20040;-67
2022/07/26 11:52:30;;;;;;;5.75;5.13;;;27.20;91.80;;;;;;5080164;28;20121;-65
2022/07/26 11:54:58;;;;;;;8.05;5.32;;;27.10;91.10;;;;;;5084246;28;20128;-64
2022/07/26 11:57:30;;;;;;;12.15;5.40;;;27.10;91.40;;;;;;5083934;28;20083;-66
2022/07/26 11:59:59;;;;;;;7.75;5.28;;;27.50;91.30;;;;;;5084055;28;20050;-68
2022/07/26 12:02:37;;;;;;;7.70;5.45;;;28.10;90.70;;;;;;5089603;28;20517;-66
2022/07/26 12:05:19;;;;;;;9.40;5.90;;;28.50;89.60;;;;;;5091622;28;20044;-67
2022/07/26 12:08:03;;;;;;;11.27;5.43;;;28.80;90.00;;;;;;5082652;28;20131;-67
2022/07/26 12:10:31;;;;;;;10.65;5.80;;;29.00;88.10;;;;;;5089784;28;20387;-65
2022/07/26 12:13:07;;;;;;;6.07;5.30;;;29.00;88.50;;;;;;5091937;28;20070;-66
2022/07/26 12:15:44;;;;;;;7.35;5.53;;;29.20;88.20;;;;;;5087534;28;20051;-66
2022/07/26 12:18:27;;;;;;;6.30;5.25;;;29.60;87.20;;;;;;5090881;28;20097;-67
2022/07/26 12:21:06;;;;;;;7.63;5.60;;;30.20;85.50;;;;;;5081175;28;20063;-64
2022/07/26 12:23:42;;;;;;;8.32;5.78;;;29.30;84.80;;;;;;5090364;28;20538;-65
2022/07/26 12:26:24;;;;;;;6.65;5.60;;;28.60;86.10;;;;;;5093428;28;20064;-64
2022/07/26 12:28:52;;;;;;;6.03;5.50;;;28.40;85.80;;;;;;5094058;28;20048;-65
2022/07/26 12:31:28;;;;;;;5.65;5.05;;;28.90;83.70;;;;;;5091095;28;20066;-64
2022/07/26 12:33:57;;;;;;;8.93;5.10;;;29.20;83.50;;;;;;5085666;28;20047;-64
2022/07/26 12:36:25;;;;;;;6.30;4.90;;;28.90;83.80;;;;;;5092005;28;20063;-64
2022/07/26 12:38:58;;;;;;;6.78;5.55;;;29.30;83.30;;;;;;5086709;28;20048;-64
2022/07/26 12:41:53;;;;;;;6.57;5.50;;;30.10;82.20;;;;;;5092199;28;20067;-65
2022/07/26 12:44:22;;;;;;;5.50;5.00;;;30.60;80.90;;;;;;5084464;28;20529;-64
2022/07/26 12:46:49;;;;;;;6.65;5.60;;;31.50;79.30;;;;;;5093058;28;20580;-66
2022/07/26 12:49:16;;;;;;;11.27;5.30;;;30.80;78.80;;;;;;5088849;28;20524;-64
2022/07/26 12:51:44;;;;;;;5.63;5.13;;;30.50;79.10;;;;;;5091051;28;20040;-65
2022/07/26 12:54:12;;;;;;;6.00;5.40;;;31.00;79.70;;;;;;5092894;28;20127;-64
2022/07/26 12:56:40;;;;;;;7.47;5.28;;;31.10;77.80;;;;;;5091435;28;20544;-63
2022/07/26 12:59:09;;;;;;;6.88;5.07;;;31.00;76.50;;;;;;5083097;28;20565;-65
2022/07/26 13:01:43;;;;;;;6.80;5.03;;;30.30;76.10;;;;;;5091570;28;20524;-63